Time;durP1;ratioP1;P1;durP2;ratioP2;P2;SDS_P1;SDS_P2;PMS_P1;PMS_P2;Temp;Humidity;BMP_temperature;BMP_pressure;BME280_temperature;BME280_humidity;BME280_pressure;Samples;Min_cycle;Max_cycle;Signal;HPM_P1;HPM_P2
2024/02/03 00:01:57;;;;;;;47.00;33.05;;;;;;;1.49;100.00;97670.72;5068375;28;20032;-66
2024/02/03 00:04:22;;;;;;;52.42;34.30;;;;;;;1.45;100.00;97670.88;5073108;28;20058;-66
2024/02/03 00:06:48;;;;;;;45.60;30.83;;;;;;;1.45;100.00;97670.88;5073505;28;20039;-66
2024/02/03 00:09:13;;;;;;;44.42;29.65;;;;;;;1.43;100.00;97668.28;5074881;28;20028;-66
2024/02/03 00:11:38;;;;;;;45.83;31.30;;;;;;;1.38;100.00;97672.75;5071535;28;20063;-66
2024/02/03 00:14:04;;;;;;;48.83;32.15;;;;;;;1.36;100.00;97667.56;5068555;28;20871;-66
2024/02/03 00:16:29;;;;;;;41.67;29.17;;;;;;;1.39;100.00;97664.91;5072382;28;20091;-66
2024/02/03 00:18:55;;;;;;;39.83;27.45;;;;;;;1.37;100.00;97664.09;5073302;28;20033;-66
2024/02/03 00:21:20;;;;;;;35.08;25.95;;;;;;;1.31;100.00;97669.44;5071300;28;20082;-66
2024/02/03 00:23:46;;;;;;;34.47;24.13;;;;;;;1.32;100.00;97667.69;5063721;28;20412;-66
2024/02/03 00:26:11;;;;;;;35.08;24.52;;;;;;;1.31;100.00;97666.84;5069680;28;20047;-66
2024/02/03 00:28:37;;;;;;;26.88;18.88;;;;;;;1.29;100.00;97673.81;5071459;28;20111;-66
2024/02/03 00:31:03;;;;;;;26.55;19.52;;;;;;;1.30;100.00;97675.53;5069795;28;20129;-66
2024/02/03 00:33:28;;;;;;;24.85;19.52;;;;;;;1.28;100.00;97669.50;5073511;28;20027;-65
2024/02/03 00:35:54;;;;;;;27.20;19.48;;;;;;;1.24;100.00;97676.50;5069543;28;20060;-66
2024/02/03 00:38:20;;;;;;;21.73;16.25;;;;;;;1.24;100.00;97673.06;5069398;28;20556;-66
2024/02/03 00:40:45;;;;;;;21.23;16.25;;;;;;;1.18;100.00;97665.41;5066058;28;20043;-65
2024/02/03 00:43:14;;;;;;;25.30;15.77;;;;;;;1.16;100.00;97664.59;5071673;28;20059;-66
2024/02/03 00:45:40;;;;;;;17.13;14.75;;;;;;;1.17;100.00;97661.09;5070833;28;20401;-65
2024/02/03 00:48:06;;;;;;;16.88;15.10;;;;;;;1.16;100.00;97651.63;5065674;28;20128;-66
2024/02/03 00:50:31;;;;;;;19.65;15.13;;;;;;;1.13;100.00;97647.38;5064250;28;20032;-66
2024/02/03 00:52:56;;;;;;;17.30;14.23;;;;;;;1.11;100.00;97655.19;5072401;28;20404;-66
2024/02/03 00:55:22;;;;;;;16.63;13.95;;;;;;;1.05;100.00;97650.13;5067280;28;20043;-66
2024/02/03 00:57:47;;;;;;;18.95;14.80;;;;;;;1.06;100.00;97648.38;5073196;28;20068;-66
2024/02/03 01:00:13;;;;;;;19.60;13.45;;;;;;;1.04;100.00;97647.56;5061952;28;20037;-66
2024/02/03 01:02:41;;;;;;;16.38;12.80;;;;;;;0.97;100.00;97639.06;5071456;28;20036;-66
2024/02/03 01:05:06;;;;;;;16.15;12.50;;;;;;;1.03;100.00;97648.44;5071977;28;20067;-65
2024/02/03 01:07:32;;;;;;;16.52;12.25;;;;;;;1.01;100.00;97645.91;5067156;28;20032;-66
2024/02/03 01:09:58;;;;;;;17.77;12.15;;;;;;;1.02;100.00;97645.03;5065772;28;20028;-66
2024/02/03 01:12:23;;;;;;;20.58;13.90;;;;;;;1.00;100.00;97645.03;5071899;28;20024;-66
2024/02/03 01:14:48;;;;;;;15.90;11.18;;;;;;;1.00;100.00;97652.00;5070576;28;20394;-65
2024/02/03 01:17:14;;;;;;;14.55;10.95;;;;;;;0.98;100.00;97651.13;5067102;28;20020;-66
2024/02/03 01:19:39;;;;;;;13.77;10.65;;;;;;;1.01;100.00;97653.69;5068985;28;20036;-66
2024/02/03 01:22:05;;;;;;;16.92;12.27;;;;;;;1.05;100.00;97654.47;5067497;28;20028;-66
2024/02/03 01:24:30;;;;;;;16.42;10.20;;;;;;;1.08;100.00;97652.66;5068062;28;20139;-66
2024/02/03 01:26:55;;;;;;;17.85;12.07;;;;;;;1.08;100.00;97652.66;5068975;28;20417;-66
2024/02/03 01:29:21;;;;;;;14.38;10.95;;;;;;;1.02;100.00;97649.34;5066994;28;20114;-66
2024/02/03 01:31:46;;;;;;;14.73;11.73;;;;;;;0.97;100.00;97652.91;5066580;28;20036;-65
2024/02/03 01:34:11;;;;;;;14.13;11.30;;;;;;;0.92;100.00;97648.69;5071786;28;20025;-65
2024/02/03 01:36:37;;;;;;;16.27;11.95;;;;;;;0.88;100.00;97652.25;5072173;28;20551;-66
2024/02/03 01:39:02;;;;;;;15.43;11.32;;;;;;;0.90;100.00;97653.94;5068965;28;20471;-65
2024/02/03 01:41:28;;;;;;;16.40;11.88;;;;;;;0.90;100.00;97653.94;5065809;28;20028;-66
2024/02/03 01:43:53;;;;;;;18.48;12.73;;;;;;;0.91;100.00;97659.97;5061581;28;20393;-66
2024/02/03 01:46:19;;;;;;;16.90;11.63;;;;;;;0.91;100.00;97659.97;5061383;28;20040;-66
2024/02/03 01:48:46;;;;;;;15.57;11.55;;;;;;;0.85;100.00;97664.41;5054697;28;20570;-66
2024/02/03 01:51:13;;;;;;;16.88;11.68;;;;;;;0.84;100.00;97667.88;5066261;28;20036;-66
2024/02/03 01:53:39;;;;;;;18.98;11.40;;;;;;;0.86;100.00;97662.66;5063355;28;20028;-66
2024/02/03 01:56:06;;;;;;;16.50;11.18;;;;;;;0.85;100.00;97666.13;5069074;28;20478;-67
2024/02/03 01:58:31;;;;;;;14.57;11.68;;;;;;;0.82;100.00;97669.66;5065228;28;20025;-65
2024/02/03 02:00:57;;;;;;;14.50;11.65;;;;;;;0.74;100.00;97662.94;5070321;28;20520;-66
2024/02/03 02:03:22;;;;;;;13.80;10.25;;;;;;;0.73;100.00;97659.47;5064408;28;20074;-66
2024/02/03 02:05:47;;;;;;;12.90;9.40;;;;;;;0.76;100.00;97654.22;5067815;28;20193;-66
2024/02/03 02:08:13;;;;;;;13.40;9.52;;;;;;;0.79;100.00;97658.50;5074094;28;20096;-66
2024/02/03 02:10:38;;;;;;;12.77;9.55;;;;;;;0.78;100.00;97649.88;5068866;28;20063;-65
2024/02/03 02:13:04;;;;;;;12.98;9.00;;;;;;;0.76;100.00;97649.03;5064257;28;20021;-66
2024/02/03 02:15:30;;;;;;;11.32;8.50;;;;;;;0.75;100.00;97649.06;5071762;28;20088;-66
2024/02/03 02:17:59;;;;;;;11.60;8.48;;;;;;;0.79;100.00;97648.97;5069246;28;20021;-66
2024/02/03 02:20:25;;;;;;;11.43;8.25;;;;;;;0.82;100.00;97648.03;5059867;28;20086;-66
2024/02/03 02:22:50;;;;;;;11.88;8.75;;;;;;;0.83;100.00;97645.44;5075615;28;20028;-66
2024/02/03 02:25:16;;;;;;;12.50;9.02;;;;;;;0.85;100.00;97647.97;5054796;28;20017;-65
2024/02/03 02:27:41;;;;;;;10.02;8.38;;;;;;;0.87;100.00;97646.19;5062621;28;20060;-66
2024/02/03 02:30:07;;;;;;;14.80;8.27;;;;;;;0.81;100.00;97639.44;5070641;28;20503;-66
2024/02/03 02:32:32;;;;;;;10.80;7.75;;;;;;;0.79;100.00;97638.59;5064610;28;20028;-66
2024/02/03 02:34:58;;;;;;;9.38;7.72;;;;;;;0.74;100.00;97639.59;5066803;28;20037;-66
2024/02/03 02:37:24;;;;;;;13.02;9.15;;;;;;;0.69;100.00;97643.13;5072345;28;20550;-66
2024/02/03 02:39:49;;;;;;;10.50;8.50;;;;;;;0.67;100.00;97644.03;5072970;28;20405;-66
2024/02/03 02:42:15;;;;;;;12.57;8.98;;;;;;;0.68;100.00;97633.66;5072617;28;20124;-66
2024/02/03 02:44:41;;;;;;;17.17;9.60;;;;;;;0.67;100.00;97633.69;5069597;28;20036;-66
2024/02/03 02:47:07;;;;;;;9.32;8.25;;;;;;;0.63;100.00;97634.63;5071152;28;20028;-66
2024/02/03 02:49:32;;;;;;;9.90;8.63;;;;;;;0.61;100.00;97633.81;5076784;28;20039;-65
2024/02/03 02:51:58;;;;;;;11.43;8.20;;;;;;;0.55;100.00;97634.78;5074101;28;20040;-66
2024/02/03 02:54:23;;;;;;;16.38;8.73;;;;;;;0.54;100.00;97636.50;5071238;28;20017;-66
2024/02/03 02:56:49;;;;;;;12.63;8.07;;;;;;;0.54;100.00;97646.88;5065083;28;20056;-66
2024/02/03 02:59:16;;;;;;;10.30;8.32;;;;;;;0.54;100.00;97643.44;5072882;28;20029;-66
2024/02/03 03:01:42;;;;;;;9.55;8.07;;;;;;;0.50;100.00;97649.59;5077475;28;20056;-66
2024/02/03 03:04:08;;;;;;;9.05;7.97;;;;;;;0.46;100.00;97645.38;5072316;28;20536;-65
2024/02/03 03:06:33;;;;;;;11.18;7.80;;;;;;;0.41;100.00;97637.66;5076322;28;20036;-65
2024/02/03 03:08:59;;;;;;;10.50;7.72;;;;;;;0.40;100.00;97635.97;5072463;28;20090;-66
2024/02/03 03:11:24;;;;;;;10.82;7.28;;;;;;;0.40;100.00;97636.81;5072743;28;20021;-66
2024/02/03 03:13:49;;;;;;;9.85;7.75;;;;;;;0.39;100.00;97631.66;5062349;28;20036;-66
2024/02/03 03:16:15;;;;;;;10.68;7.35;;;;;;;0.38;100.00;97640.34;5064184;28;20117;-65
2024/02/03 03:18:40;;;;;;;8.93;7.15;;;;;;;0.39;100.00;97635.09;5066463;28;20564;-66
2024/02/03 03:21:09;;;;;;;8.20;7.35;;;;;;;0.39;100.00;97623.91;5079319;28;20028;-66
2024/02/03 03:23:34;;;;;;;7.90;7.10;;;;;;;0.35;100.00;97619.66;5069819;28;20028;-66
2024/02/03 03:26:00;;;;;;;7.55;6.60;;;;;;;0.37;100.00;97612.72;5065461;28;20024;-65
2024/02/03 03:28:26;;;;;;;8.82;7.38;;;;;;;0.33;100.00;97611.03;5071428;28;20037;-66
2024/02/03 03:30:52;;;;;;;8.88;7.32;;;;;;;0.28;100.00;97614.59;5069898;28;20135;-66
2024/02/03 03:33:17;;;;;;;9.40;7.00;;;;;;;0.28;100.00;97603.38;5074531;28;20028;-66
2024/02/03 03:35:43;;;;;;;8.88;7.03;;;;;;;0.28;100.00;97603.38;5070180;28;20044;-66
2024/02/03 03:38:10;;;;;;;10.77;6.97;;;;;;;0.29;100.00;97599.91;5072092;28;20504;-66
2024/02/03 03:40:37;;;;;;;7.20;6.50;;;;;;;0.26;100.00;97600.81;5066865;28;20104;-66
2024/02/03 03:43:04;;;;;;;8.18;6.75;;;;;;;0.27;100.00;97602.50;5071636;28;20057;-66
2024/02/03 03:45:30;;;;;;;8.90;6.63;;;;;;;0.24;100.00;97594.81;5070370;28;20052;-66
2024/02/03 03:47:57;;;;;;;7.80;7.00;;;;;;;0.22;100.00;97586.22;5067213;28;20037;-66
2024/02/03 03:50:23;;;;;;;9.18;6.97;;;;;;;0.22;100.00;97591.41;5075517;28;20028;-66
2024/02/03 03:52:48;;;;;;;8.05;7.13;;;;;;;0.21;100.00;97596.59;5067993;28;20025;-66
2024/02/03 03:55:15;;;;;;;7.93;6.68;;;;;;;0.16;100.00;97596.72;5072178;28;20029;-65
2024/02/03 03:57:41;;;;;;;7.72;6.50;;;;;;;0.13;100.00;97599.38;5070284;28;20085;-66
2024/02/03 04:00:09;;;;;;;7.75;6.93;;;;;;;0.12;100.00;97598.50;5066003;28;20033;-66
2024/02/03 04:02:35;;;;;;;7.47;6.35;;;;;;;0.13;100.00;97599.38;5070363;28;20154;-66
2024/02/03 04:05:00;;;;;;;9.63;7.50;;;;;;;0.17;100.00;97603.59;5069798;28;20067;-66
2024/02/03 04:07:26;;;;;;;8.82;7.72;;;;;;;0.16;100.00;97611.38;5068479;28;20031;-65
2024/02/03 04:09:51;;;;;;;7.90;6.35;;;;;;;0.12;100.00;97611.47;5060673;28;20031;-66
2024/02/03 04:12:17;;;;;;;9.20;8.30;;;;;;;0.11;100.00;97611.47;5069528;28;20040;-66
2024/02/03 04:14:43;;;;;;;10.52;7.70;;;;;;;0.09;100.00;97610.66;5063993;28;20512;-65
2024/02/03 04:17:09;;;;;;;10.48;7.63;;;;;;;0.08;100.00;97619.31;5071575;28;20032;-65
2024/02/03 04:19:35;;;;;;;9.98;8.10;;;;;;;0.01;100.00;97618.59;5069329;28;20032;-66
2024/02/03 04:22:01;;;;;;;9.05;8.10;;;;;;;-0.02;100.00;97624.69;5070916;28;20078;-65
2024/02/03 04:24:26;;;;;;;12.13;8.75;;;;;;;0.01;100.00;97618.59;5073946;28;20044;-65
2024/02/03 04:26:52;;;;;;;9.95;8.95;;;;;;;0.02;100.00;97619.44;5068963;28;20028;-65
2024/02/03 04:29:17;;;;;;;9.52;8.38;;;;;;;0.01;100.00;97626.38;5071606;28;20027;-65
2024/02/03 04:31:42;;;;;;;9.88;8.93;;;;;;;-0.02;100.00;97622.09;5061838;28;20021;-66
2024/02/03 04:34:09;;;;;;;11.98;8.68;;;;;;;-0.02;100.00;97616.91;5066680;28;20073;-66
2024/02/03 04:36:34;;;;;;;12.55;9.73;;;;;;;-0.03;100.00;97622.97;5069778;28;20036;-66
2024/02/03 04:38:59;;;;;;;16.00;10.73;;;;;;;-0.04;100.00;97622.97;5067029;28;20033;-66
2024/02/03 04:41:25;;;;;;;20.20;16.65;;;;;;;-0.08;100.00;97621.34;5071960;28;20030;-66
2024/02/03 04:43:50;;;;;;;25.20;14.63;;;;;;;-0.09;100.00;97623.09;5073556;28;20033;-65
2024/02/03 04:46:16;;;;;;;16.10;12.68;;;;;;;-0.08;100.00;97614.44;5069531;28;20035;-66
2024/02/03 04:48:44;;;;;;;14.95;12.02;;;;;;;-0.05;100.00;97619.56;5064936;28;20028;-65
2024/02/03 04:51:10;;;;;;;12.68;9.15;;;;;;;-0.03;100.00;97616.91;5074295;28;20024;-66
2024/02/03 04:53:35;;;;;;;10.75;9.65;;;;;;;-0.07;100.00;97621.31;5071774;28;20024;-65
2024/02/03 04:56:01;;;;;;;12.57;10.77;;;;;;;-0.08;100.00;97614.44;5062548;28;20016;-66
2024/02/03 04:58:26;;;;;;;14.57;10.80;;;;;;;-0.06;100.00;97611.81;5061683;28;20024;-65
2024/02/03 05:00:51;;;;;;;11.38;10.18;;;;;;;-0.09;100.00;97615.31;5058442;28;20032;-66
2024/02/03 05:03:17;;;;;;;13.40;10.45;;;;;;;-0.08;100.00;97618.75;5060643;28;20021;-65
2024/02/03 05:05:42;;;;;;;17.55;12.43;;;;;;;-0.08;100.00;97614.44;5071924;28;20054;-65
2024/02/03 05:08:08;;;;;;;18.63;13.13;;;;;;;-0.09;100.00;97610.16;5062420;28;20397;-65
2024/02/03 05:10:33;;;;;;;20.42;12.35;;;;;;;-0.14;100.00;97609.34;5066626;28;20021;-65
2024/02/03 05:12:59;;;;;;;16.77;11.48;;;;;;;-0.14;100.00;97606.75;5068187;28;20031;-66
2024/02/03 05:15:24;;;;;;;18.58;11.60;;;;;;;-0.16;100.00;97605.94;5067704;28;20032;-66
2024/02/03 05:17:49;;;;;;;23.23;18.88;;;;;;;-0.18;100.00;97605.13;5070954;28;20056;-66
2024/02/03 05:20:15;;;;;;;19.48;15.05;;;;;;;-0.17;100.00;97601.66;5070355;28;20016;-66
2024/02/03 05:22:41;;;;;;;15.43;11.77;;;;;;;-0.20;100.00;97600.00;5061237;28;20028;-66
2024/02/03 05:25:07;;;;;;;22.98;16.20;;;;;;;-0.18;100.00;97594.78;5066660;28;20039;-65
2024/02/03 05:27:32;;;;;;;26.45;16.17;;;;;;;-0.23;100.00;97589.66;5067459;28;20032;-66
2024/02/03 05:29:58;;;;;;;24.20;14.50;;;;;;;-0.22;100.00;97594.00;5059508;28;20560;-66
2024/02/03 05:32:23;;;;;;;16.33;13.05;;;;;;;-0.21;100.00;97581.88;5069667;28;20016;-66
2024/02/03 05:34:49;;;;;;;15.15;11.32;;;;;;;-0.21;100.00;97585.34;5060857;28;20398;-66
2024/02/03 05:37:14;;;;;;;14.57;11.68;;;;;;;-0.28;100.00;97580.31;5069477;28;20055;-65
2024/02/03 05:39:39;;;;;;;18.67;12.60;;;;;;;-0.33;100.00;97588.16;5065536;28;20024;-66
2024/02/03 05:42:05;;;;;;;16.40;12.18;;;;;;;-0.34;100.00;97579.50;5068570;28;20068;-66
2024/02/03 05:44:30;;;;;;;17.98;10.57;;;;;;;-0.33;100.00;97585.56;5062530;28;20033;-66
2024/02/03 05:46:56;;;;;;;22.50;12.02;;;;;;;-0.36;100.00;97578.69;5071205;28;20036;-66
2024/02/03 05:49:21;;;;;;;17.10;12.35;;;;;;;-0.42;100.00;97578.81;5072320;28;20028;-66
2024/02/03 05:51:46;;;;;;;24.83;14.80;;;;;;;-0.44;100.00;97575.41;5070698;28;20035;-66
2024/02/03 05:54:12;;;;;;;41.30;24.48;;;;;;;-0.38;100.00;97572.69;5070724;28;20025;-66
2024/02/03 05:56:37;;;;;;;40.72;23.80;;;;;;;-0.36;100.00;97573.50;5068770;28;20076;-66
2024/02/03 05:59:03;;;;;;;35.33;23.40;;;;;;;-0.34;100.00;97569.16;5066009;28;20024;-65
2024/02/03 06:01:29;;;;;;;38.10;21.23;;;;;;;-0.37;100.00;97565.78;5058291;28;20595;-65
2024/02/03 06:03:54;;;;;;;31.40;17.45;;;;;;;-0.38;100.00;97559.75;5065518;28;20033;-65
2024/02/03 06:06:21;;;;;;;31.08;19.83;;;;;;;-0.41;100.00;97559.81;5072382;28;20031;-66
2024/02/03 06:08:47;;;;;;;21.13;16.05;;;;;;;-0.48;100.00;97553.06;5072375;28;20035;-65
2024/02/03 06:11:12;;;;;;;23.73;15.25;;;;;;;-0.49;100.00;97546.16;5069987;28;20037;-66
2024/02/03 06:13:38;;;;;;;20.13;15.15;;;;;;;-0.48;100.00;97558.22;5073171;28;20465;-66
2024/02/03 06:16:04;;;;;;;18.98;14.52;;;;;;;-0.47;100.00;97559.94;5066492;28;20031;-65
2024/02/03 06:18:29;;;;;;;22.38;16.40;;;;;;;-0.46;100.00;97556.47;5072163;28;20063;-65
2024/02/03 06:20:54;;;;;;;22.63;14.18;;;;;;;-0.40;100.00;97555.50;5067122;28;20158;-66
2024/02/03 06:23:20;;;;;;;20.88;15.35;;;;;;;-0.37;100.00;97564.03;5071324;28;20021;-65
2024/02/03 06:25:45;;;;;;;18.63;13.38;;;;;;;-0.38;100.00;97558.91;5069686;28;20047;-66
2024/02/03 06:28:11;;;;;;;18.63;13.45;;;;;;;-0.40;100.00;97555.50;5071132;28;20025;-65
2024/02/03 06:30:37;;;;;;;15.98;12.63;;;;;;;-0.45;100.00;97563.34;5065016;28;20549;-66
2024/02/03 06:33:04;;;;;;;21.95;13.55;;;;;;;-0.52;100.00;97564.34;5065033;28;20028;-65
2024/02/03 06:35:30;;;;;;;16.42;12.70;;;;;;;-0.54;100.00;97566.09;5074369;28;20031;-65
2024/02/03 06:37:55;;;;;;;23.38;13.45;;;;;;;-0.57;100.00;97567.00;5077030;28;20025;-65
2024/02/03 06:40:22;;;;;;;40.70;22.77;;;;;;;-0.53;100.00;97570.41;5074875;28;20031;-66
2024/02/03 06:42:52;;;;;;;31.17;19.70;;;;;;;-0.54;100.00;97569.53;5070865;28;20040;-66
2024/02/03 06:45:19;;;;;;;32.28;20.92;;;;;;;-0.54;100.00;97561.78;5058246;28;20108;-67
2024/02/03 06:47:45;;;;;;;31.38;21.55;;;;;;;-0.55;100.00;97567.81;5072650;28;20043;-66
2024/02/03 06:50:11;;;;;;;32.10;21.95;;;;;;;-0.54;100.00;97564.34;5076097;28;20537;-66
2024/02/03 06:52:37;;;;;;;29.15;21.48;;;;;;;-0.56;100.00;97565.25;5070132;28;20021;-66
2024/02/03 06:55:03;;;;;;;40.60;23.13;;;;;;;-0.58;100.00;97553.19;5069601;28;20569;-66
2024/02/03 06:57:28;;;;;;;30.83;21.10;;;;;;;-0.56;100.00;97560.06;5072591;28;20584;-66
2024/02/03 06:59:54;;;;;;;28.92;20.02;;;;;;;-0.55;100.00;97557.47;5073862;28;20107;-66
2024/02/03 07:02:19;;;;;;;28.98;20.67;;;;;;;-0.55;100.00;97552.31;5071432;28;20058;-66
2024/02/03 07:04:45;;;;;;;30.02;21.63;;;;;;;-0.53;100.00;97555.72;5066219;28;20493;-66
2024/02/03 07:07:10;;;;;;;30.05;20.80;;;;;;;-0.54;100.00;97553.16;5072098;28;20273;-66
2024/02/03 07:09:35;;;;;;;28.65;20.30;;;;;;;-0.56;100.00;97558.34;5074381;28;20032;-66
2024/02/03 07:12:01;;;;;;;27.05;20.95;;;;;;;-0.51;100.00;97564.28;5071059;28;20100;-66
2024/02/03 07:14:27;;;;;;;30.73;21.20;;;;;;;-0.49;100.00;97564.28;5068751;28;20021;-66
2024/02/03 07:16:52;;;;;;;34.33;22.27;;;;;;;-0.49;100.00;97559.94;5058954;28;20461;-65
2024/02/03 07:19:17;;;;;;;28.15;21.95;;;;;;;-0.48;100.00;97555.63;5074407;28;20029;-66
2024/02/03 07:21:43;;;;;;;38.65;23.23;;;;;;;-0.44;100.00;97559.88;5069812;28;20488;-67
2024/02/03 07:24:08;;;;;;;26.05;21.10;;;;;;;-0.46;100.00;97571.97;5069065;28;20035;-66
2024/02/03 07:26:33;;;;;;;29.05;22.63;;;;;;;-0.45;100.00;97571.09;5068743;28;20032;-66
2024/02/03 07:28:59;;;;;;;32.03;22.52;;;;;;;-0.41;100.00;97579.69;5065902;28;20580;-66
2024/02/03 07:31:29;;;;;;;33.55;21.95;;;;;;;-0.38;100.00;97571.84;5070994;28;20059;-66
2024/02/03 07:33:56;;;;;;;37.20;24.67;;;;;;;-0.36;100.00;97570.91;5067828;28;20085;-66
2024/02/03 07:36:23;;;;;;;44.53;27.85;;;;;;;-0.36;100.00;97562.31;5067118;28;20543;-66
2024/02/03 07:38:48;;;;;;;35.25;23.55;;;;;;;-0.36;100.00;97563.16;5060869;28;20032;-66
2024/02/03 07:41:14;;;;;;;35.50;25.27;;;;;;;-0.36;100.00;97565.75;5064241;28;20084;-66
2024/02/03 07:43:40;;;;;;;31.85;24.17;;;;;;;-0.27;100.00;97564.72;5070503;28;20116;-66
2024/02/03 07:46:05;;;;;;;30.85;22.83;;;;;;;-0.22;100.00;97565.50;5068714;28;20027;-68
2024/02/03 07:48:31;;;;;;;25.85;21.45;;;;;;;-0.24;100.00;97556.06;5067774;28;20389;-65
2024/02/03 07:50:56;;;;;;;27.52;20.83;;;;;;;-0.26;100.00;97563.00;5068987;28;20051;-66
2024/02/03 07:53:21;;;;;;;23.42;20.33;;;;;;;-0.24;100.00;97556.06;5070521;28;20583;-65
2024/02/03 07:55:47;;;;;;;22.17;18.30;;;;;;;-0.16;100.00;97561.94;5058464;28;20029;-66
2024/02/03 07:58:12;;;;;;;37.60;24.10;;;;;;;-0.08;100.00;97549.72;5070634;28;20030;-65
2024/02/03 08:00:38;;;;;;;39.50;25.13;;;;;;;-0.05;100.00;97554.81;5066254;28;20126;-64
2024/02/03 08:03:03;;;;;;;38.15;28.90;;;;;;;0.03;100.00;97559.84;5068684;28;20028;-65
2024/02/03 08:05:29;;;;;;;45.50;30.77;;;;;;;0.07;100.00;97568.38;5072921;28;20032;-65
2024/02/03 08:07:54;;;;;;;38.78;27.73;;;;;;;0.09;100.00;97569.22;5063104;28;20099;-65
2024/02/03 08:10:19;;;;;;;43.35;29.83;;;;;;;0.12;100.00;97571.75;5064387;28;20032;-64
2024/02/03 08:12:45;;;;;;;50.25;34.05;;;;;;;0.14;100.00;97567.41;5068217;28;20039;-65
2024/02/03 08:15:10;;;;;;;40.63;30.95;;;;;;;0.18;100.00;97558.69;5070975;28;20044;-65
2024/02/03 08:17:36;;;;;;;39.05;30.23;;;;;;;0.19;100.00;97565.56;5070064;28;20843;-65
2024/02/03 08:20:03;;;;;;;41.40;28.58;;;;;;;0.22;100.00;97562.03;5064033;28;20033;-64
2024/02/03 08:22:29;;;;;;;36.38;26.08;;;;;;;0.22;100.00;97559.44;5067981;28;20040;-65
2024/02/03 08:24:55;;;;;;;35.33;28.33;;;;;;;0.23;100.00;97566.38;5067009;28;20627;-65
2024/02/03 08:27:20;;;;;;;35.25;26.63;;;;;;;0.28;100.00;97556.75;5060527;28;20031;-64
2024/02/03 08:29:46;;;;;;;45.38;34.47;;;;;;;0.26;100.00;97564.53;5065741;28;20719;-65
2024/02/03 08:32:11;;;;;;;61.08;41.85;;;;;;;0.27;100.00;97560.22;5063109;28;20040;-64
2024/02/03 08:34:36;;;;;;;58.70;39.60;;;;;;;0.31;100.00;97561.00;5067181;28;20511;-64
2024/02/03 08:37:02;;;;;;;42.50;33.60;;;;;;;0.33;100.00;97561.81;5067409;28;20050;-65
2024/02/03 08:39:27;;;;;;;36.90;27.83;;;;;;;0.47;100.00;97557.19;5062502;28;20025;-66
2024/02/03 08:41:53;;;;;;;34.70;27.52;;;;;;;0.57;100.00;97547.47;5062870;28;20076;-64
2024/02/03 08:44:18;;;;;;;35.63;29.38;;;;;;;0.61;100.00;97550.84;5067804;28;20032;-65
2024/02/03 08:46:44;;;;;;;37.58;28.35;;;;;;;0.64;100.00;97554.22;5059798;28;20082;-65
2024/02/03 08:49:09;;;;;;;31.15;24.67;;;;;;;0.73;100.00;97560.94;5073203;28;20036;-64
2024/02/03 08:51:35;;;;;;;29.88;25.17;;;;;;;0.83;100.00;97557.25;5069303;28;20017;-68
2024/02/03 08:54:00;;;;;;;31.63;25.63;;;;;;;0.91;100.00;97561.41;5067100;28;20032;-65
2024/02/03 08:56:25;;;;;;;38.97;24.35;;;;;;;0.92;100.00;97557.91;5068981;28;20048;-66
2024/02/03 08:58:51;;;;;;;35.72;25.27;;;;;;;0.94;100.00;97562.19;5064335;28;20390;-66
2024/02/03 09:01:16;;;;;;;29.38;25.60;;;;;;;0.97;100.00;97559.53;5057694;28;20048;-65
2024/02/03 09:03:42;;;;;;;28.50;25.25;;;;;;;1.09;100.00;97566.16;5063212;28;20024;-65
2024/02/03 09:06:10;;;;;;;32.72;26.63;;;;;;;1.42;100.00;97566.19;5070373;28;20077;-65
2024/02/03 09:08:35;;;;;;;32.85;25.85;;;;;;;1.78;100.00;97562.69;5070583;28;20029;-66
2024/02/03 09:11:00;;;;;;;31.63;26.17;;;;;;;2.19;100.00;97567.63;5066665;28;20040;-65
2024/02/03 09:13:26;;;;;;;28.42;23.80;;;;;;;2.53;100.00;97556.22;5065072;28;20394;-66
2024/02/03 09:15:51;;;;;;;26.27;22.85;;;;;;;2.87;100.00;97556.91;5064216;28;20120;-66
2024/02/03 09:18:17;;;;;;;26.95;21.92;;;;;;;3.17;100.00;97567.28;5067682;28;20028;-67
2024/02/03 09:20:42;;;;;;;27.67;20.85;;;;;;;3.51;100.00;97570.50;5065250;28;20028;-66
2024/02/03 09:23:07;;;;;;;13.57;10.80;;;;;;;3.87;100.00;97565.78;5066201;28;20036;-65
2024/02/03 09:25:33;;;;;;;12.40;9.18;;;;;;;4.16;100.00;97561.25;5064921;28;20112;-65
2024/02/03 09:27:58;;;;;;;9.57;6.78;;;;;;;4.44;100.00;97564.59;5062673;28;20052;-65
2024/02/03 09:30:24;;;;;;;8.63;7.07;;;;;;;4.69;100.00;97545.41;5067686;28;20112;-65
2024/02/03 09:32:49;;;;;;;8.35;7.07;;;;;;;4.86;100.00;97532.53;5069273;28;20090;-65
2024/02/03 09:35:14;;;;;;;10.38;7.63;;;;;;;5.01;100.00;97525.00;5068909;28;20028;-66
2024/02/03 09:37:43;;;;;;;8.10;7.40;;;;;;;5.30;100.00;97512.50;5060627;28;20038;-65
2024/02/03 09:40:16;;;;;;;10.77;6.47;;;;;;;5.60;100.00;97501.66;5064349;28;20576;-65
2024/02/03 09:42:41;;;;;;;8.07;7.20;;;;;;;5.96;100.00;97493.13;5064781;28;20044;-66
2024/02/03 09:45:07;;;;;;;6.57;5.95;;;;;;;6.30;100.00;97488.16;5067466;28;20185;-66
2024/02/03 09:47:32;;;;;;;8.48;7.13;;;;;;;6.53;100.00;97486.22;5060181;28;20389;-66
2024/02/03 09:50:01;;;;;;;8.60;6.07;;;;;;;6.69;100.00;97481.97;5064751;28;20050;-66
2024/02/03 09:52:29;;;;;;;8.65;6.70;;;;;;;6.90;100.00;97488.84;5063724;28;20021;-66
2024/02/03 09:54:55;;;;;;;9.52;7.65;;;;;;;6.98;100.00;97471.00;5068892;28;20046;-65
2024/02/03 09:57:21;;;;;;;7.85;6.50;;;;;;;7.17;100.00;97474.38;5064664;28;20456;-65
2024/02/03 09:59:51;;;;;;;9.23;8.32;;;;;;;7.27;100.00;97469.50;5066329;28;20029;-66
2024/02/03 10:02:16;;;;;;;14.40;9.88;;;;;;;7.47;100.00;97467.66;5063582;28;20029;-65
2024/02/03 10:04:44;;;;;;;12.35;8.68;;;;;;;7.71;100.00;97468.16;5072685;28;20796;-66
2024/02/03 10:07:10;;;;;;;8.23;7.35;;;;;;;7.82;100.00;97466.75;5066455;28;20033;-66
2024/02/03 10:09:36;;;;;;;10.30;6.78;;;;;;;7.60;100.00;97454.75;5069390;28;20094;-65
2024/02/03 10:12:01;;;;;;;9.40;6.60;;;;;;;7.63;100.00;97459.88;5063513;28;20044;-66
2024/02/03 10:14:27;;;;;;;7.63;6.10;;;;;;;7.67;100.00;97460.53;5068745;28;20052;-66
2024/02/03 10:16:53;;;;;;;6.90;6.30;;;;;;;7.69;100.00;97461.28;5057076;28;20037;-66
2024/02/03 10:19:22;;;;;;;6.95;5.93;;;;;;;7.76;100.00;97457.44;5060841;28;20062;-65
2024/02/03 10:21:49;;;;;;;9.00;5.75;;;;;;;7.84;100.00;97464.88;5067406;28;20036;-66
2024/02/03 10:24:27;;;;;;;7.85;6.40;;;;;;;7.80;100.00;97468.59;5064020;28;20025;-66
2024/02/03 10:27:03;;;;;;;9.43;5.75;;;;;;;7.94;100.00;97466.09;5076866;28;20469;-66
2024/02/03 10:29:29;;;;;;;7.30;6.55;;;;;;;8.05;100.00;97451.53;5067665;28;20034;-67
2024/02/03 10:31:54;;;;;;;7.28;6.57;;;;;;;8.06;100.00;97453.25;5065113;28;20419;-66
2024/02/03 10:34:20;;;;;;;6.75;6.05;;;;;;;8.13;100.00;97449.38;5065718;28;20020;-66
2024/02/03 10:36:46;;;;;;;11.02;6.85;;;;;;;8.17;100.00;97449.09;5058702;28;20135;-66
2024/02/03 10:39:12;;;;;;;6.05;5.55;;;;;;;8.25;100.00;97447.84;5057573;28;20032;-67
2024/02/03 10:41:39;;;;;;;8.57;6.18;;;;;;;8.49;100.00;97445.63;5064024;28;20044;-66
2024/02/03 10:44:07;;;;;;;10.95;5.43;;;;;;;8.70;100.00;97433.13;5069625;28;20097;-67
2024/02/03 10:46:39;;;;;;;6.43;5.43;;;;;;;8.67;100.00;97437.69;5066038;28;20043;-68
2024/02/03 10:49:12;;;;;;;8.13;7.03;;;;;;;8.84;100.00;97432.31;5063998;28;20781;-66
2024/02/03 10:51:40;;;;;;;7.25;6.55;;;;;;;8.98;100.00;97418.38;5063863;28;20032;-66
2024/02/03 10:54:17;;;;;;;7.10;6.40;;;;;;;8.84;100.00;97413.09;5065462;28;20025;-67
2024/02/03 10:56:49;;;;;;;5.63;5.13;;;;;;;8.79;100.00;97399.38;5067635;28;20025;-66
2024/02/03 10:59:19;;;;;;;6.53;5.70;;;;;;;8.74;100.00;97383.91;5067727;28;20064;-65
2024/02/03 11:01:44;;;;;;;7.00;5.07;;;;;;;8.89;100.00;97379.53;5071420;28;20032;-65
2024/02/03 11:04:16;;;;;;;6.70;5.28;;;;;;;9.05;100.00;97368.09;5065518;28;20032;-65
2024/02/03 11:06:45;;;;;;;6.75;5.22;;;;;;;9.06;100.00;97364.53;5069745;28;20066;-65
2024/02/03 11:09:13;;;;;;;6.10;5.28;;;;;;;9.34;100.00;97357.66;5067441;28;20064;-65
2024/02/03 11:11:41;;;;;;;7.57;4.80;;;;;;;9.45;100.00;97349.94;5065790;28;20044;-66
2024/02/03 11:14:11;;;;;;;7.40;6.70;;;;;;;9.38;100.00;97338.94;5070188;28;20084;-65